createdAt,value
2022-08-28T00:01:46.996Z,27.18
2022-08-28T00:04:21.878Z,27.11
2022-08-28T00:10:11.688Z,27.05
2022-08-28T00:12:44.150Z,27.04
2022-08-28T00:15:22.740Z,27.02
2022-08-28T00:17:58.106Z,26.99
2022-08-28T00:20:31.851Z,26.96
2022-08-28T00:23:06.034Z,26.94
2022-08-28T00:28:23.735Z,26.90
2022-08-28T00:30:59.205Z,26.85
2022-08-28T00:33:33.682Z,26.82
2022-08-28T00:36:10.280Z,26.79
2022-08-28T00:38:41.208Z,26.76
2022-08-28T00:41:13.605Z,26.74
2022-08-28T00:43:47.150Z,26.73
2022-08-28T00:46:20.137Z,26.72
2022-08-28T00:48:53.117Z,26.69
2022-08-28T00:51:41.362Z,26.67
2022-08-28T00:54:12.311Z,26.64
2022-08-28T00:56:43.361Z,26.60
2022-08-28T00:59:19.515Z,26.56
2022-08-28T01:01:54.780Z,26.52
2022-08-28T01:04:30.453Z,26.49
2022-08-28T01:07:05.663Z,26.47
2022-08-28T01:09:38.243Z,26.46
2022-08-28T01:12:12.223Z,26.45
2022-08-28T01:14:45.957Z,26.41
2022-08-28T01:17:20.868Z,26.37
2022-08-28T01:19:56.648Z,26.33
2022-08-28T01:22:30.593Z,26.26
2022-08-28T01:25:06.999Z,26.22
2022-08-28T01:27:37.806Z,26.19
2022-08-28T01:30:11.114Z,26.17
2022-08-28T01:32:42.527Z,26.15
2022-08-28T01:35:21.099Z,26.13
2022-08-28T01:37:57.593Z,26.09
2022-08-28T01:40:31.067Z,26.06
2022-08-28T01:43:12.727Z,26.03
2022-08-28T01:45:45.754Z,26.00
2022-08-28T01:48:17.021Z,25.97
2022-08-28T01:50:50.777Z,25.94
2022-08-28T01:53:26.388Z,25.92
2022-08-28T01:56:08.215Z,25.91
2022-08-28T01:58:39.703Z,25.89
2022-08-28T02:01:13.474Z,25.84
2022-08-28T02:03:44.379Z,25.81
2022-08-28T02:06:15.636Z,25.76
2022-08-28T02:08:49.961Z,25.72
2022-08-28T02:11:24.069Z,25.70
2022-08-28T02:13:58.062Z,25.68
2022-08-28T02:16:33.178Z,25.64
2022-08-28T02:19:06.539Z,25.62
2022-08-28T02:21:42.228Z,25.55
2022-08-28T02:24:19.813Z,25.51
2022-08-28T02:26:50.480Z,25.47
2022-08-28T02:29:23.818Z,25.45
2022-08-28T02:31:54.475Z,25.43
2022-08-28T02:34:34.937Z,25.41
2022-08-28T02:37:09.418Z,25.40
2022-08-28T02:39:45.591Z,25.37
2022-08-28T02:42:16.468Z,25.30
2022-08-28T02:44:50.255Z,25.23
2022-08-28T02:47:28.713Z,25.17
2022-08-28T02:50:03.640Z,25.12
2022-08-28T02:52:35.707Z,25.06
2022-08-28T02:55:07.847Z,25.01
2022-08-28T02:57:40.161Z,24.98
2022-08-28T03:00:16.281Z,24.95
2022-08-28T03:02:48.386Z,24.96
2022-08-28T03:05:27.398Z,24.93
2022-08-28T03:08:01.547Z,24.83
2022-08-28T03:10:34.896Z,24.79
2022-08-28T03:13:08.118Z,24.79
2022-08-28T03:15:43.829Z,24.78
2022-08-28T03:18:18.367Z,24.75
2022-08-28T03:20:49.603Z,24.74
2022-08-28T03:23:29.553Z,24.74
2022-08-28T03:26:01.220Z,24.70
2022-08-28T03:28:37.961Z,24.66
2022-08-28T03:31:11.193Z,24.64
2022-08-28T03:33:44.897Z,24.63
2022-08-28T03:36:17.710Z,24.64
2022-08-28T03:38:51.289Z,24.64
2022-08-28T03:41:27.437Z,24.64
2022-08-28T03:44:00.879Z,24.63
2022-08-28T03:46:35.174Z,24.63
2022-08-28T03:49:08.250Z,24.62
2022-08-28T03:51:38.970Z,24.61
2022-08-28T03:54:09.692Z,24.60
2022-08-28T03:56:42.357Z,24.60
2022-08-28T03:59:15.892Z,24.61
2022-08-28T04:01:46.660Z,24.63
2022-08-28T04:04:17.473Z,24.63
2022-08-28T04:06:48.488Z,24.63
2022-08-28T04:09:22.010Z,24.62
2022-08-28T04:11:54.381Z,24.62
2022-08-28T04:14:27.592Z,24.60
2022-08-28T04:17:01.642Z,24.58
2022-08-28T04:19:33.486Z,24.56
2022-08-28T04:22:05.219Z,24.53
2022-08-28T04:24:36.208Z,24.51
2022-08-28T04:27:07.003Z,24.46
2022-08-28T04:29:40.782Z,24.43
2022-08-28T04:32:11.720Z,24.43
2022-08-28T04:34:42.460Z,24.44
2022-08-28T04:37:14.636Z,24.45
2022-08-28T04:39:46.739Z,24.47
2022-08-28T04:42:21.198Z,24.49
2022-08-28T04:44:52.001Z,24.51
2022-08-28T04:47:26.281Z,24.53
2022-08-28T04:49:58.775Z,24.55
2022-08-28T04:52:29.672Z,24.58
2022-08-28T04:55:05.246Z,24.60
2022-08-28T04:57:36.596Z,24.61
2022-08-28T05:00:16.073Z,24.64
2022-08-28T05:02:46.995Z,24.68
2022-08-28T05:05:20.236Z,24.71
2022-08-28T05:07:53.980Z,24.73
2022-08-28T05:10:27.176Z,24.77
2022-08-28T05:13:00.317Z,24.82
2022-08-28T05:15:32.803Z,24.86
2022-08-28T05:18:03.444Z,24.90
2022-08-28T05:20:38.061Z,24.91
2022-08-28T05:23:12.865Z,24.94
2022-08-28T05:25:45.290Z,24.97
2022-08-28T05:28:20.670Z,25.02
2022-08-28T05:30:51.509Z,25.08
2022-08-28T05:33:22.584Z,25.17
2022-08-28T05:35:53.513Z,25.25
2022-08-28T05:38:29.944Z,25.32
2022-08-28T05:41:00.661Z,25.40
2022-08-28T05:43:32.390Z,25.46
2022-08-28T05:46:03.654Z,25.51
2022-08-28T05:48:37.112Z,25.57
2022-08-28T05:51:15.240Z,25.63
2022-08-28T05:53:46.842Z,25.71
2022-08-28T05:56:20.777Z,25.77
2022-08-28T05:58:51.498Z,25.84
2022-08-28T06:01:27.255Z,25.94
2022-08-28T06:04:01.248Z,26.04
2022-08-28T06:06:35.045Z,26.17
2022-08-28T06:09:11.717Z,26.29
2022-08-28T06:11:44.731Z,26.42
2022-08-28T06:14:19.756Z,26.57
2022-08-28T06:16:52.295Z,26.73
2022-08-28T06:19:26.035Z,26.88
2022-08-28T06:22:00.078Z,26.98
2022-08-28T06:24:32.942Z,27.13
2022-08-28T06:27:17.921Z,27.29
2022-08-28T06:29:48.990Z,27.48
2022-08-28T06:32:23.093Z,27.64
2022-08-28T06:34:56.030Z,27.81
2022-08-28T06:37:27.659Z,27.99
2022-08-28T06:40:01.870Z,28.18
2022-08-28T06:42:37.343Z,28.35
2022-08-28T06:45:15.964Z,28.56
2022-08-28T06:47:50.516Z,28.73
2022-08-28T06:50:28.792Z,28.93
2022-08-28T06:53:00.373Z,29.15
2022-08-28T06:55:37.117Z,29.35
2022-08-28T06:58:27.844Z,29.50
2022-08-28T07:04:01.101Z,29.87
2022-08-28T07:06:39.609Z,30.07
2022-08-28T07:09:41.134Z,30.25
2022-08-28T07:12:14.084Z,30.41
2022-08-28T07:15:26.049Z,30.48
2022-08-28T07:17:51.625Z,30.64
2022-08-28T07:20:36.660Z,30.81
2022-08-28T07:23:29.346Z,30.96
2022-08-28T07:26:06.009Z,31.00
2022-08-28T07:28:42.692Z,31.05
2022-08-28T07:31:18.243Z,31.12
2022-08-28T07:34:00.291Z,31.15
2022-08-28T07:36:32.385Z,31.14
2022-08-28T07:39:03.158Z,31.20
2022-08-28T07:41:39.384Z,31.21
2022-08-28T07:44:28.798Z,31.09
2022-08-28T07:47:04.393Z,31.06
2022-08-28T07:49:35.886Z,31.05
2022-08-28T07:52:08.472Z,31.06
2022-08-28T07:54:43.725Z,31.08
2022-08-28T07:57:14.650Z,31.10
2022-08-28T07:59:47.664Z,31.09
2022-08-28T08:02:19.632Z,31.05
2022-08-28T08:04:52.496Z,31.01
2022-08-28T08:07:23.400Z,31.01
2022-08-28T08:09:54.021Z,30.99
2022-08-28T08:12:26.540Z,30.95
2022-08-28T08:15:02.657Z,30.96
2022-08-28T08:17:37.862Z,30.98
2022-08-28T08:20:13.254Z,30.99
2022-08-28T08:22:44.359Z,31.04
2022-08-28T08:25:18.367Z,31.11
2022-08-28T08:27:52.070Z,31.17
2022-08-28T08:30:25.623Z,31.22
2022-08-28T08:32:59.447Z,31.26
2022-08-28T08:35:33.833Z,31.36
2022-08-28T08:38:05.805Z,31.47
2022-08-28T08:40:40.102Z,31.58
2022-08-28T08:43:14.464Z,31.72
2022-08-28T08:45:47.827Z,31.90
2022-08-28T08:48:25.313Z,32.10
2022-08-28T08:50:59.920Z,32.33
2022-08-28T08:53:32.332Z,32.62
2022-08-28T08:56:06.045Z,32.94
2022-08-28T08:58:37.819Z,33.28
2022-08-28T09:01:11.596Z,33.64
2022-08-28T09:03:49.624Z,34.01
2022-08-28T09:06:31.628Z,34.43
2022-08-28T09:09:03.747Z,34.83
2022-08-28T09:11:50.365Z,35.23
2022-08-28T09:14:31.786Z,35.64
2022-08-28T09:17:02.817Z,36.01
2022-08-28T09:19:34.641Z,36.39
2022-08-28T09:22:12.339Z,36.77
2022-08-28T09:24:45.491Z,37.16
2022-08-28T09:27:29.828Z,37.53
2022-08-28T09:30:07.725Z,37.94
2022-08-28T09:32:45.003Z,38.34
2022-08-28T09:35:27.444Z,38.70
2022-08-28T09:38:17.596Z,39.06
2022-08-28T09:41:10.750Z,39.33
2022-08-28T09:43:42.624Z,39.56
2022-08-28T09:46:18.050Z,39.73
2022-08-28T09:48:51.028Z,39.95
2022-08-28T09:51:39.565Z,40.09
2022-08-28T09:54:14.247Z,40.35
2022-08-28T09:56:48.980Z,40.39
2022-08-28T09:59:20.317Z,40.33
2022-08-28T10:01:55.022Z,40.26
2022-08-28T10:04:31.528Z,40.40
2022-08-28T10:07:03.673Z,40.48
2022-08-28T10:09:38.601Z,40.58
2022-08-28T10:12:22.578Z,40.51
2022-08-28T10:14:59.570Z,40.32
2022-08-28T10:17:34.061Z,40.13
2022-08-28T10:20:08.585Z,40.21
2022-08-28T10:22:41.609Z,40.46
2022-08-28T10:25:25.742Z,40.74
2022-08-28T10:27:59.572Z,41.13
2022-08-28T10:30:34.544Z,41.41
2022-08-28T10:33:21.204Z,41.30
2022-08-28T10:35:57.491Z,41.06
2022-08-28T10:38:31.499Z,41.00
2022-08-28T10:41:14.353Z,41.05
2022-08-28T10:43:51.453Z,41.32
2022-08-28T10:46:27.149Z,41.55
2022-08-28T10:48:59.938Z,41.72
2022-08-28T10:51:35.262Z,41.76
2022-08-28T10:54:23.019Z,41.79
2022-08-28T10:57:00.342Z,42.06
2022-08-28T10:59:31.187Z,42.37
2022-08-28T11:02:07.248Z,42.51
2022-08-28T11:04:37.957Z,42.72
2022-08-28T11:07:10.788Z,42.95
2022-08-28T11:09:42.344Z,42.94
2022-08-28T11:12:33.945Z,42.80
2022-08-28T11:15:21.015Z,42.77
2022-08-28T11:17:52.909Z,42.69
2022-08-28T11:20:25.200Z,42.85
2022-08-28T11:22:59.799Z,43.18
2022-08-28T11:25:34.900Z,43.52
2022-08-28T11:28:20.212Z,43.67
2022-08-28T11:30:51.737Z,43.79
2022-08-28T11:33:41.473Z,44.08
2022-08-28T11:36:15.038Z,44.37
2022-08-28T11:39:16.403Z,44.46
2022-08-28T11:42:00.381Z,44.67
2022-08-28T11:44:44.700Z,44.90
2022-08-28T11:47:38.957Z,45.05
2022-08-28T11:50:16.532Z,44.74
2022-08-28T11:53:04.738Z,44.59
2022-08-28T11:55:39.836Z,44.22
2022-08-28T12:00:53.012Z,44.25
2022-08-28T12:03:28.386Z,44.32
2022-08-28T12:05:59.328Z,44.48
2022-08-28T12:08:45.264Z,44.72
2022-08-28T12:11:37.532Z,44.62
2022-08-28T12:14:08.320Z,44.61
2022-08-28T12:17:06.353Z,44.56
2022-08-28T12:19:41.186Z,44.84
2022-08-28T12:22:21.708Z,44.86
2022-08-28T12:25:00.222Z,44.72
2022-08-28T12:27:31.852Z,44.55
2022-08-28T12:30:02.811Z,44.36
2022-08-28T12:32:37.355Z,44.22
2022-08-28T12:35:17.940Z,44.17
2022-08-28T12:38:02.411Z,44.36
2022-08-28T12:40:38.864Z,44.79
2022-08-28T12:43:10.618Z,45.22
2022-08-28T12:45:47.226Z,45.42
2022-08-28T12:48:19.096Z,45.65
2022-08-28T12:50:50.525Z,45.74
2022-08-28T12:53:22.915Z,45.83
2022-08-28T12:55:54.776Z,45.84
2022-08-28T12:58:34.463Z,46.03
2022-08-28T13:01:20.667Z,45.85
2022-08-28T13:03:54.841Z,45.91
2022-08-28T13:06:28.873Z,45.90
2022-08-28T13:09:03.540Z,45.90
2022-08-28T13:11:41.475Z,45.75
2022-08-28T13:14:12.333Z,45.57
2022-08-28T13:16:43.683Z,45.36
2022-08-28T13:19:27.544Z,45.40
2022-08-28T13:22:02.966Z,45.36
2022-08-28T13:24:42.430Z,45.46
2022-08-28T13:27:29.358Z,45.50
2022-08-28T13:30:04.304Z,45.53
2022-08-28T13:32:38.676Z,45.36
2022-08-28T13:35:29.860Z,44.74
2022-08-28T13:38:03.633Z,44.07
2022-08-28T13:43:27.570Z,43.82
2022-08-28T13:45:59.500Z,43.90
2022-08-28T13:48:32.395Z,43.86
2022-08-28T13:51:05.181Z,43.82
2022-08-28T13:53:41.748Z,43.82
2022-08-28T13:56:15.407Z,43.91
2022-08-28T13:58:50.029Z,44.16
2022-08-28T14:01:51.525Z,44.29
2022-08-28T14:04:25.571Z,44.27
2022-08-28T14:06:56.601Z,44.41
2022-08-28T14:09:29.416Z,44.40
2022-08-28T14:12:08.446Z,44.38
2022-08-28T14:14:43.720Z,44.43
2022-08-28T14:17:19.239Z,44.49
2022-08-28T14:19:50.236Z,44.57
2022-08-28T14:22:22.163Z,44.53
2022-08-28T14:24:55.263Z,44.51
2022-08-28T14:27:32.375Z,44.47
2022-08-28T14:30:06.138Z,44.32
2022-08-28T14:32:41.197Z,44.23
2022-08-28T14:35:18.076Z,44.22
2022-08-28T14:37:51.037Z,44.38
2022-08-28T14:40:25.200Z,44.45
2022-08-28T14:42:56.007Z,44.29
2022-08-28T14:45:33.973Z,44.09
2022-08-28T14:48:04.947Z,43.61
2022-08-28T14:50:43.297Z,43.37
2022-08-28T14:53:15.226Z,43.26
2022-08-28T14:55:47.632Z,43.09
2022-08-28T14:58:19.609Z,42.85
2022-08-28T15:00:51.103Z,42.49
2022-08-28T15:03:24.708Z,42.14
2022-08-28T15:06:08.612Z,41.85
2022-08-28T15:08:39.916Z,41.42
2022-08-28T15:11:19.038Z,41.06
2022-08-28T15:13:51.831Z,40.74
2022-08-28T15:16:29.839Z,40.63
2022-08-28T15:19:02.981Z,40.61
2022-08-28T15:21:35.662Z,40.63
2022-08-28T15:24:08.828Z,40.62
2022-08-28T15:26:40.425Z,40.57
2022-08-28T15:29:12.173Z,40.41
2022-08-28T15:31:44.542Z,40.19
2022-08-28T15:34:18.636Z,40.11
2022-08-28T15:36:55.645Z,40.00
2022-08-28T15:39:45.748Z,39.85
2022-08-28T15:42:21.361Z,39.67
2022-08-28T15:44:54.900Z,39.52
2022-08-28T15:47:27.922Z,39.39
2022-08-28T15:49:58.553Z,39.32
2022-08-28T15:52:32.301Z,39.24
2022-08-28T15:55:10.505Z,39.09
2022-08-28T15:57:41.792Z,39.02
2022-08-28T16:00:13.816Z,38.93
2022-08-28T16:02:50.203Z,38.81
2022-08-28T16:05:22.861Z,38.69
2022-08-28T16:07:55.373Z,38.59
2022-08-28T16:10:28.258Z,38.43
2022-08-28T16:13:03.365Z,38.25
2022-08-28T16:15:34.260Z,38.06
2022-08-28T16:18:09.109Z,37.92
2022-08-28T16:20:39.980Z,37.78
2022-08-28T16:23:12.793Z,37.71
2022-08-28T16:25:43.524Z,37.67
2022-08-28T16:28:14.528Z,37.64
2022-08-28T16:30:50.014Z,37.57
2022-08-28T16:33:23.125Z,37.45
2022-08-28T16:35:56.468Z,37.35
2022-08-28T16:38:27.499Z,37.25
2022-08-28T16:40:58.556Z,37.14
2022-08-28T16:43:29.313Z,37.03
2022-08-28T16:46:01.334Z,36.96
2022-08-28T16:48:37.630Z,36.87
2022-08-28T16:51:11.157Z,36.78
2022-08-28T16:53:48.456Z,36.65
2022-08-28T16:56:23.924Z,36.55
2022-08-28T16:58:56.174Z,36.42
2022-08-28T17:01:28.292Z,36.29
2022-08-28T17:04:16.026Z,36.17
2022-08-28T17:06:52.336Z,36.07
2022-08-28T17:09:28.015Z,35.95
2022-08-28T17:12:04.875Z,35.83
2022-08-28T17:14:35.943Z,35.72
2022-08-28T17:17:06.841Z,35.60
2022-08-28T17:19:43.011Z,35.49
2022-08-28T17:22:31.101Z,35.38
2022-08-28T17:25:03.360Z,35.28
2022-08-28T17:27:39.321Z,35.18
2022-08-28T17:30:12.248Z,35.08
2022-08-28T17:32:44.413Z,34.97
2022-08-28T17:35:15.326Z,34.86
2022-08-28T17:37:53.504Z,34.74
2022-08-28T17:40:26.835Z,34.64
2022-08-28T17:42:57.658Z,34.52
2022-08-28T17:45:28.841Z,34.44
2022-08-28T17:48:02.660Z,34.36
2022-08-28T17:50:37.021Z,34.27
2022-08-28T17:53:11.653Z,34.20
2022-08-28T17:55:43.987Z,34.14
2022-08-28T17:58:14.964Z,34.05
2022-08-28T18:00:47.572Z,33.97
2022-08-28T18:03:20.825Z,33.87
2022-08-28T18:05:55.702Z,33.79
2022-08-28T18:08:28.934Z,33.70
2022-08-28T18:11:00.801Z,33.62
2022-08-28T18:13:33.926Z,33.54
2022-08-28T18:16:07.811Z,33.47
2022-08-28T18:18:39.143Z,33.39
2022-08-28T18:21:12.631Z,33.30
2022-08-28T18:23:43.738Z,33.21
2022-08-28T18:26:23.602Z,33.15
2022-08-28T18:28:55.016Z,33.08
2022-08-28T18:31:28.919Z,33.00
2022-08-28T18:34:01.762Z,32.92
2022-08-28T18:36:51.920Z,32.85
2022-08-28T18:39:39.367Z,32.79
2022-08-28T18:42:13.394Z,32.70
2022-08-28T18:44:46.524Z,32.65
2022-08-28T18:47:20.800Z,32.59
2022-08-28T18:49:53.672Z,32.54
2022-08-28T18:52:24.452Z,32.45
2022-08-28T18:55:00.601Z,32.38
2022-08-28T18:57:33.956Z,32.33
2022-08-28T19:00:11.936Z,32.28
2022-08-28T19:02:45.009Z,32.23
2022-08-28T19:05:16.155Z,32.17
2022-08-28T19:07:50.011Z,32.13
2022-08-28T19:10:32.699Z,32.10
2022-08-28T19:13:09.505Z,32.06
2022-08-28T19:15:40.867Z,32.02
2022-08-28T19:18:14.908Z,31.98
2022-08-28T19:20:46.162Z,31.94
2022-08-28T19:23:18.009Z,31.89
2022-08-28T19:25:49.416Z,31.85
2022-08-28T19:28:23.281Z,31.81
2022-08-28T19:30:54.174Z,31.77
2022-08-28T19:33:28.149Z,31.70
2022-08-28T19:36:00.343Z,31.60
2022-08-28T19:38:39.850Z,31.55
2022-08-28T19:41:11.481Z,31.50
2022-08-28T19:43:43.263Z,31.45
2022-08-28T19:46:22.045Z,31.41
2022-08-28T19:48:53.145Z,31.34
2022-08-28T19:51:33.416Z,31.28
2022-08-28T19:54:05.868Z,31.24
2022-08-28T19:56:44.268Z,31.20
2022-08-28T19:59:26.963Z,31.17
2022-08-28T20:01:58.063Z,31.13
2022-08-28T20:04:28.765Z,31.09
2022-08-28T20:07:00.847Z,31.05
2022-08-28T20:09:36.965Z,31.00
2022-08-28T20:12:07.916Z,30.96
2022-08-28T20:14:41.701Z,30.93
2022-08-28T20:17:14.312Z,30.88
2022-08-28T20:19:50.144Z,30.82
2022-08-28T20:22:25.868Z,30.80
2022-08-28T20:24:56.780Z,30.77
2022-08-28T20:27:28.055Z,30.73
2022-08-28T20:30:00.650Z,30.70
2022-08-28T20:32:47.443Z,30.66
2022-08-28T20:35:22.109Z,30.60
2022-08-28T20:37:57.826Z,30.55
2022-08-28T20:40:29.933Z,30.50
2022-08-28T20:43:05.317Z,30.46
2022-08-28T20:45:37.313Z,30.41
2022-08-28T20:48:08.237Z,30.37
2022-08-28T20:50:41.427Z,30.31
2022-08-28T20:53:12.812Z,30.27
2022-08-28T20:56:04.389Z,30.22
2022-08-28T20:58:37.471Z,30.17
2022-08-28T21:01:08.802Z,30.11
2022-08-28T21:03:45.182Z,30.02
2022-08-28T21:06:18.383Z,29.95
2022-08-28T21:08:50.524Z,29.92
2022-08-28T21:11:21.687Z,29.88
2022-08-28T21:13:52.998Z,29.87
2022-08-28T21:16:25.942Z,29.83
2022-08-28T21:19:16.741Z,29.77
2022-08-28T21:21:57.192Z,29.68
2022-08-28T21:24:30.227Z,29.65
2022-08-28T21:27:09.588Z,29.63
2022-08-28T21:29:44.090Z,29.60
2022-08-28T21:32:19.814Z,29.58
2022-08-28T21:34:55.186Z,29.54
2022-08-28T21:37:28.560Z,29.48
2022-08-28T21:40:00.872Z,29.40
2022-08-28T21:42:34.171Z,29.36
2022-08-28T21:45:11.261Z,29.31
2022-08-28T21:47:46.209Z,29.26
2022-08-28T21:50:18.419Z,29.24
2022-08-28T21:52:51.704Z,29.22
2022-08-28T21:55:25.180Z,29.20
2022-08-28T21:58:00.807Z,29.17
2022-08-28T22:00:33.215Z,29.15
2022-08-28T22:03:12.573Z,29.13
2022-08-28T22:05:45.015Z,29.10
2022-08-28T22:08:15.973Z,29.07
2022-08-28T22:10:49.797Z,29.04
2022-08-28T22:13:28.488Z,28.99
2022-08-28T22:16:02.269Z,28.97
2022-08-28T22:18:34.312Z,28.96
2022-08-28T22:21:24.292Z,28.94
2022-08-28T22:23:57.633Z,28.92
2022-08-28T22:26:30.959Z,28.89
2022-08-28T22:29:05.645Z,28.85
2022-08-28T22:31:41.367Z,28.82
2022-08-28T22:34:20.235Z,28.79
2022-08-28T22:36:51.449Z,28.75
2022-08-28T22:39:30.182Z,28.73
2022-08-28T22:42:06.604Z,28.68
2022-08-28T22:44:41.571Z,28.65
2022-08-28T22:47:18.875Z,28.62
2022-08-28T22:49:51.115Z,28.60
2022-08-28T22:52:23.136Z,28.58
2022-08-28T22:54:54.885Z,28.54
2022-08-28T22:57:29.268Z,28.48
2022-08-28T23:00:06.508Z,28.38
2022-08-28T23:02:38.917Z,28.32
2022-08-28T23:05:11.601Z,28.30
2022-08-28T23:07:46.997Z,28.24
2022-08-28T23:10:19.376Z,28.22
2022-08-28T23:12:51.546Z,28.21
2022-08-28T23:15:23.442Z,28.20
2022-08-28T23:17:55.629Z,28.20
2022-08-28T23:20:28.839Z,28.19
2022-08-28T23:23:02.832Z,28.17
2022-08-28T23:25:36.067Z,28.17
2022-08-28T23:28:09.644Z,28.16
2022-08-28T23:30:44.059Z,28.14
2022-08-28T23:33:23.698Z,28.10
2022-08-28T23:35:55.388Z,28.06
2022-08-28T23:38:27.189Z,28.03
2022-08-28T23:40:58.673Z,28.00
2022-08-28T23:43:31.253Z,27.96
2022-08-28T23:46:02.818Z,27.91
2022-08-28T23:48:33.748Z,27.80
2022-08-28T23:51:12.105Z,27.66
2022-08-28T23:53:45.972Z,27.62
2022-08-28T23:56:19.740Z,27.61
2022-08-28T23:58:54.059Z,27.61
